Time;durP1;ratioP1;P1;durP2;ratioP2;P2;SDS_P1;SDS_P2;PMS_P1;PMS_P2;Temp;Humidity;BMP_temperature;BMP_pressure;BME280_temperature;BME280_humidity;BME280_pressure;Samples;Min_cycle;Max_cycle;Signal;HPM_P1;HPM_P2
2024/04/16 00:01:43;;;;;;;;;;;;;;;5.04;100.00;95746.31;5466198;26;20095;-72
2024/04/16 00:04:09;;;;;;;;;;;;;;;5.08;100.00;95749.31;5466010;26;19948;-73
2024/04/16 00:06:36;;;;;;;;;;;;;;;5.12;100.00;95749.72;5465871;26;19962;-72
2024/04/16 00:09:01;;;;;;;;;;;;;;;5.11;100.00;95732.53;5465825;26;20082;-72
2024/04/16 00:11:27;;;;;;;;;;;;;;;5.06;100.00;95733.13;5465687;26;19947;-72
2024/04/16 00:13:53;;;;;;;;;;;;;;;5.04;100.00;95746.31;5468954;26;19958;-72
2024/04/16 00:16:19;;;;;;;;;;;;;;;5.04;100.00;95722.13;5469288;26;19978;-72
2024/04/16 00:18:45;;;;;;;;;;;;;;;4.98;100.00;95705.56;5469404;26;19967;-72
2024/04/16 00:21:11;;;;;;;;;;;;;;;4.95;100.00;95725.94;5469528;26;19954;-67
2024/04/16 00:23:37;;;;;;;;;;;;;;;4.94;100.00;95727.72;5469145;26;19967;-72
2024/04/16 00:26:03;;;;;;;;;;;;;;;4.94;100.00;95716.56;5469313;26;20008;-73
2024/04/16 00:28:29;;;;;;;;;;;;;;;4.91;100.00;95715.13;5468658;26;19979;-72
2024/04/16 00:30:55;;;;;;;;;;;;;;;4.89;100.00;95709.34;5469213;26;20152;-72
2024/04/16 00:33:21;;;;;;;;;;;;;;;4.89;100.00;95717.13;5468958;26;20022;-72
2024/04/16 00:35:47;;;;;;;;;;;;;;;4.89;100.00;95711.94;5469157;26;19951;-72
2024/04/16 00:38:12;;;;;;;;;;;;;;;4.84;100.00;95722.94;5469160;26;19970;-73
2024/04/16 00:40:38;;;;;;;;;;;;;;;4.86;100.00;95697.56;5468967;26;19992;-73
2024/04/16 00:43:16;;;;;;;;;;;;;;;4.88;100.00;95711.13;5469021;26;20051;-65
2024/04/16 00:45:48;;;;;;;;;;;;;;;4.90;100.00;95690.16;5468969;26;19957;-66
2024/04/16 00:48:14;;;;;;;;;;;;;;;4.90;100.00;95684.97;5468892;26;20081;-66
2024/04/16 00:50:40;;;;;;;;;;;;;;;4.92;100.00;95719.34;5467966;26;19999;-66
2024/04/16 00:53:06;;;;;;;;;;;;;;;4.89;100.00;95717.13;5468874;26;20007;-67
2024/04/16 00:55:33;;;;;;;;;;;;;;;4.85;100.00;95706.34;5468745;26;20164;-66
2024/04/16 00:57:59;;;;;;;;;;;;;;;4.85;100.00;95670.00;5468876;26;20086;-74
2024/04/16 01:00:25;;;;;;;;;;;;;;;4.85;100.00;95688.16;5468699;26;19951;-74
2024/04/16 01:02:50;;;;;;;;;;;;;;;4.80;100.00;95687.97;5468662;26;19957;-75
2024/04/16 01:05:16;;;;;;;;;;;;;;;4.84;100.00;95698.75;5468765;26;19974;-75
2024/04/16 01:07:42;;;;;;;;;;;;;;;4.83;100.00;95728.31;5468575;26;19951;-75
2024/04/16 01:10:08;;;;;;;;;;;;;;;4.81;100.00;95728.53;5468649;26;19962;-74
2024/04/16 01:12:41;;;;;;;;;;;;;;;4.77;100.00;95708.34;5468501;26;19950;-73
2024/04/16 01:15:07;;;;;;;;;;;;;;;4.74;100.00;95677.56;5468374;26;20095;-66
2024/04/16 01:17:33;;;;;;;;;;;;;;;4.60;100.00;95677.56;5468365;26;19950;-66
2024/04/16 01:19:58;;;;;;;;;;;;;;;4.54;100.00;95691.34;5467646;26;20062;-75
2024/04/16 01:22:24;;;;;;;;;;;;;;;4.52;100.00;95693.34;5468384;26;19975;-76
2024/04/16 01:24:50;;;;;;;;;;;;;;;4.51;100.00;95655.38;5468157;26;20017;-75
2024/04/16 01:27:16;;;;;;;;;;;;;;;4.49;100.00;95685.94;5468364;26;19956;-75
2024/04/16 01:29:42;;;;;;;;;;;;;;;4.47;100.00;95712.13;5468311;26;19965;-75
2024/04/16 01:32:08;;;;;;;;;;;;;;;4.45;100.00;95701.13;5468323;26;20015;-76
2024/04/16 01:34:34;;;;;;;;;;;;;;;4.41;100.00;95676.56;5468156;26;19962;-66
2024/04/16 01:37:00;;;;;;;;;;;;;;;4.46;100.00;95665.56;5468236;26;19955;-66
2024/04/16 01:39:26;;;;;;;;;;;;;;;4.50;100.00;95635.63;5468083;26;20153;-66
2024/04/16 01:41:51;;;;;;;;;;;;;;;4.48;100.00;95672.16;5468133;26;19966;-66
2024/04/16 01:44:17;;;;;;;;;;;;;;;4.45;100.00;95680.38;5468056;26;19950;-66
2024/04/16 01:46:43;;;;;;;;;;;;;;;4.43;100.00;95660.75;5467967;26;20040;-66
2024/04/16 01:49:09;;;;;;;;;;;;;;;4.37;100.00;95646.00;5467931;26;20019;-66
2024/04/16 01:51:35;;;;;;;;;;;;;;;4.38;100.00;95657.97;5467981;26;19965;-66
2024/04/16 01:54:00;;;;;;;;;;;;;;;4.37;100.00;95654.59;5467260;26;20175;-71
2024/04/16 01:56:26;;;;;;;;;;;;;;;4.31;100.00;95636.41;5467961;26;19970;-74
2024/04/16 01:58:52;;;;;;;;;;;;;;;4.33;100.00;95626.63;5467862;26;20022;-74
2024/04/16 02:01:18;;;;;;;;;;;;;;;4.35;100.00;95645.41;5467777;26;20012;-74
2024/04/16 02:03:44;;;;;;;;;;;;;;;4.38;100.00;95650.19;5467864;26;19984;-74
2024/04/16 02:06:10;;;;;;;;;;;;;;;4.36;100.00;95644.41;5467567;26;19970;-73
2024/04/16 02:08:36;;;;;;;;;;;;;;;4.31;100.00;95646.81;5467681;26;19978;-74
2024/04/16 02:11:02;;;;;;;;;;;;;;;4.24;100.00;95641.56;5467767;26;19944;-66
2024/04/16 02:13:31;;;;;;;;;;;;;;;4.17;100.00;95625.22;5467632;26;19969;-66
2024/04/16 02:15:56;;;;;;;;;;;;;;;4.13;100.00;95618.81;5467656;26;19976;-66
2024/04/16 02:18:22;;;;;;;;;;;;;;;4.06;100.00;95645.53;5467830;26;19944;-66
2024/04/16 02:20:48;;;;;;;;;;;;;;;4.01;100.00;95634.97;5467596;26;20185;-66
2024/04/16 02:23:14;;;;;;;;;;;;;;;3.99;100.00;95631.78;5467596;26;20148;-66
2024/04/16 02:25:46;;;;;;;;;;;;;;;4.06;100.00;95621.41;5467577;26;19954;-66
2024/04/16 02:28:12;;;;;;;;;;;;;;;4.09;100.00;95609.84;5467488;26;20157;-66
2024/04/16 02:30:38;;;;;;;;;;;;;;;4.11;100.00;95638.97;5467487;26;19995;-75
2024/04/16 02:33:04;;;;;;;;;;;;;;;4.10;100.00;95627.00;5467419;26;19972;-66
2024/04/16 02:35:32;;;;;;;;;;;;;;;4.02;100.00;95638.34;5466293;26;19958;-66
2024/04/16 02:37:58;;;;;;;;;;;;;;;4.03;100.00;95635.56;5467354;26;19963;-66
2024/04/16 02:40:24;;;;;;;;;;;;;;;4.03;100.00;95625.19;5467306;26;19964;-66
2024/04/16 02:42:50;;;;;;;;;;;;;;;3.99;100.00;95612.78;5467338;26;19983;-66
2024/04/16 02:45:16;;;;;;;;;;;;;;;3.95;100.00;95625.38;5467331;26;19967;-66
2024/04/16 02:47:41;;;;;;;;;;;;;;;3.95;100.00;95633.16;5467157;26;19949;-66
2024/04/16 02:50:07;;;;;;;;;;;;;;;3.97;100.00;95630.34;5467317;26;20030;-73
2024/04/16 02:52:36;;;;;;;;;;;;;;;3.97;100.00;95633.75;5467314;26;19956;-74
2024/04/16 02:55:02;;;;;;;;;;;;;;;4.02;100.00;95646.16;5467018;26;19953;-74
2024/04/16 02:57:28;;;;;;;;;;;;;;;4.08;100.00;95637.56;5467127;26;19968;-75
2024/04/16 02:59:54;;;;;;;;;;;;;;;4.11;100.00;95644.94;5467028;26;19946;-76
2024/04/16 03:02:20;;;;;;;;;;;;;;;4.11;100.00;95637.16;5467097;26;19953;-78
2024/04/16 03:04:46;;;;;;;;;;;;;;;4.15;100.00;95635.78;5467045;26;20023;-76
2024/04/16 03:07:12;;;;;;;;;;;;;;;4.17;100.00;95635.59;5466999;26;20109;-73
2024/04/16 03:09:37;;;;;;;;;;;;;;;4.13;100.00;95642.97;5466836;26;19949;-73
2024/04/16 03:12:03;;;;;;;;;;;;;;;4.11;100.00;95641.56;5466855;26;19952;-74
2024/04/16 03:14:29;;;;;;;;;;;;;;;4.11;100.00;95655.34;5466805;26;19992;-75
2024/04/16 03:16:55;;;;;;;;;;;;;;;4.06;100.00;95642.16;5466686;26;20042;-74
2024/04/16 03:19:21;;;;;;;;;;;;;;;4.04;100.00;95637.16;5466605;26;19954;-75
2024/04/16 03:21:47;;;;;;;;;;;;;;;4.09;100.00;95648.75;5466648;26;19959;-75
2024/04/16 03:24:13;;;;;;;;;;;;;;;4.12;100.00;95628.41;5466703;26;20081;-76
2024/04/16 03:26:39;;;;;;;;;;;;;;;4.18;100.00;95632.81;5466568;26;19948;-72
2024/04/16 03:29:05;;;;;;;;;;;;;;;4.23;100.00;95633.00;5466480;26;19950;-71
2024/04/16 03:31:30;;;;;;;;;;;;;;;4.29;100.00;95635.81;5465597;26;19956;-71
2024/04/16 03:33:56;;;;;;;;;;;;;;;4.33;100.00;95629.22;5466359;26;19946;-71
2024/04/16 03:36:22;;;;;;;;;;;;;;;4.29;100.00;95633.22;5466415;26;20018;-71
2024/04/16 03:38:48;;;;;;;;;;;;;;;4.27;100.00;95628.22;5466322;26;20018;-72
2024/04/16 03:41:14;;;;;;;;;;;;;;;4.31;100.00;95633.81;5466315;26;20060;-72
2024/04/16 03:43:40;;;;;;;;;;;;;;;4.30;100.00;95630.41;5466237;26;19954;-71
2024/04/16 03:46:05;;;;;;;;;;;;;;;4.28;100.00;95635.00;5466266;26;19977;-67
2024/04/16 03:48:31;;;;;;;;;;;;;;;4.32;100.00;95643.19;5468775;26;20021;-67
2024/04/16 03:50:57;;;;;;;;;;;;;;;4.33;100.00;95643.00;5469021;26;19967;-66
2024/04/16 03:53:23;;;;;;;;;;;;;;;4.37;100.00;95643.41;5469059;26;19953;-66
2024/04/16 03:55:49;;;;;;;;;;;;;;;4.37;100.00;95636.41;5469579;26;19975;-66
2024/04/16 03:58:15;;;;;;;;;;;;;;;4.38;100.00;95629.44;5469726;26;20017;-67
2024/04/16 04:03:26;;;;;;;;;;;;;;;4.34;100.00;95630.81;5469617;26;19971;-75
2024/04/16 04:05:52;;;;;;;;;;;;;;;4.31;100.00;95631.22;5468782;26;20149;-66
2024/04/16 04:08:18;;;;;;;;;;;;;;;4.28;100.00;95619.44;5469482;26;19944;-67
2024/04/16 04:10:43;;;;;;;;;;;;;;;4.18;100.00;95621.59;5469443;26;19993;-66
2024/04/16 04:13:09;;;;;;;;;;;;;;;4.13;100.00;95617.00;5468575;26;19970;-67
2024/04/16 04:15:35;;;;;;;;;;;;;;;4.09;100.00;95615.81;5469300;26;19961;-66
2024/04/16 04:18:01;;;;;;;;;;;;;;;4.09;100.00;95621.00;5469438;26;19974;-66
2024/04/16 04:20:27;;;;;;;;;;;;;;;4.09;100.00;95615.81;5469378;26;19962;-74
2024/04/16 04:22:53;;;;;;;;;;;;;;;4.09;100.00;95615.81;5469320;26;20016;-75
2024/04/16 04:25:19;;;;;;;;;;;;;;;4.03;100.00;95617.41;5469150;26;20017;-74
2024/04/16 04:27:45;;;;;;;;;;;;;;;4.00;100.00;95625.56;5469218;26;19983;-74
2024/04/16 04:30:11;;;;;;;;;;;;;;;4.01;100.00;95618.59;5469122;26;19987;-75
2024/04/16 04:32:49;;;;;;;;;;;;;;;4.01;100.00;95618.59;5469163;26;19951;-74
2024/04/16 04:35:14;;;;;;;;;;;;;;;3.92;100.00;95623.16;5469085;26;19963;-75
2024/04/16 04:37:40;;;;;;;;;;;;;;;3.85;100.00;95620.56;5469113;26;19947;-67
2024/04/16 04:40:06;;;;;;;;;;;;;;;3.88;100.00;95623.75;5469160;26;19979;-76
2024/04/16 04:42:32;;;;;;;;;;;;;;;3.88;100.00;95619.34;5469009;26;19962;-75
2024/04/16 04:44:58;;;;;;;;;;;;;;;3.88;100.00;95610.78;5469084;26;19953;-75
2024/04/16 04:47:24;;;;;;;;;;;;;;;3.90;100.00;95612.19;5469009;26;20090;-74
2024/04/16 04:49:50;;;;;;;;;;;;;;;3.91;100.00;95629.34;5469004;26;20158;-75
2024/04/16 04:52:18;;;;;;;;;;;;;;;3.88;100.00;95627.13;5468891;26;19950;-75
2024/04/16 04:54:44;;;;;;;;;;;;;;;3.82;100.00;95626.16;5468777;26;19997;-73
2024/04/16 04:57:10;;;;;;;;;;;;;;;3.80;100.00;95632.50;5468838;26;19962;-75
2024/04/16 04:59:36;;;;;;;;;;;;;;;3.81;100.00;95631.53;5468160;26;19948;-79
2024/04/16 05:02:02;;;;;;;;;;;;;;;3.84;100.00;95631.94;5468786;26;20142;-78
2024/04/16 05:04:28;;;;;;;;;;;;;;;3.88;100.00;95636.72;5467900;26;19949;-77
2024/04/16 05:06:54;;;;;;;;;;;;;;;3.90;100.00;95629.53;5468700;26;19952;-77
2024/04/16 05:09:20;;;;;;;;;;;;;;;3.89;100.00;95639.13;5468647;26;19972;-77
2024/04/16 05:11:45;;;;;;;;;;;;;;;3.92;100.00;95637.94;5468595;26;19951;-76
2024/04/16 05:14:12;;;;;;;;;;;;;;;3.90;100.00;95635.53;5468539;26;19957;-78
2024/04/16 05:16:38;;;;;;;;;;;;;;;3.95;100.00;95640.13;5468633;26;19942;-76
2024/04/16 05:19:04;;;;;;;;;;;;;;;3.97;100.00;95648.50;5468596;26;19944;-72
2024/04/16 05:21:30;;;;;;;;;;;;;;;3.98;100.00;95658.69;5468362;26;19976;-73
2024/04/16 05:23:56;;;;;;;;;;;;;;;4.00;100.00;95658.50;5468506;26;19967;-72
2024/04/16 05:26:22;;;;;;;;;;;;;;;4.01;100.00;95658.31;5468444;26;19948;-72
2024/04/16 05:28:51;;;;;;;;;;;;;;;4.02;100.00;95652.13;5468447;26;19953;-72
2024/04/16 05:31:17;;;;;;;;;;;;;;;4.04;100.00;95664.91;5468396;26;19953;-72
2024/04/16 05:33:43;;;;;;;;;;;;;;;4.01;100.00;95662.69;5468385;26;19950;-68
2024/04/16 05:36:09;;;;;;;;;;;;;;;4.01;100.00;95654.91;5468282;26;19949;-73
2024/04/16 05:38:35;;;;;;;;;;;;;;;4.03;100.00;95660.69;5467448;26;19996;-73
2024/04/16 05:41:03;;;;;;;;;;;;;;;4.06;100.00;95666.31;5468231;26;20077;-74
2024/04/16 05:43:29;;;;;;;;;;;;;;;4.09;100.00;95667.69;5468169;26;19984;-73
2024/04/16 05:45:55;;;;;;;;;;;;;;;4.16;100.00;95665.94;5468212;26;19962;-73
2024/04/16 05:48:22;;;;;;;;;;;;;;;4.21;100.00;95666.13;5468187;26;20089;-74
2024/04/16 05:50:47;;;;;;;;;;;;;;;4.26;100.00;95674.16;5467994;26;19952;-73
2024/04/16 05:53:16;;;;;;;;;;;;;;;4.32;100.00;95671.75;5468083;26;19957;-67
2024/04/16 05:55:42;;;;;;;;;;;;;;;4.34;100.00;95683.53;5467859;26;19987;-66
2024/04/16 05:58:10;;;;;;;;;;;;;;;4.38;100.00;95689.13;5467917;26;19965;-66
2024/04/16 06:00:37;;;;;;;;;;;;;;;4.44;100.00;95693.53;5467905;26;19973;-66
2024/04/16 06:03:03;;;;;;;;;;;;;;;4.48;100.00;95697.34;5467933;26;19952;-66
2024/04/16 06:05:29;;;;;;;;;;;;;;;4.52;100.00;95695.94;5467706;26;19957;-66
2024/04/16 06:07:56;;;;;;;;;;;;;;;4.56;100.00;95688.56;5467677;26;19955;-67
2024/04/16 06:10:22;;;;;;;;;;;;;;;4.59;100.00;95675.16;5466418;26;19973;-67
2024/04/16 06:12:48;;;;;;;;;;;;;;;4.62;100.00;95666.97;5466575;26;19953;-72
2024/04/16 06:15:14;;;;;;;;;;;;;;;4.67;100.00;95680.19;5466969;26;19986;-72
2024/04/16 06:17:40;;;;;;;;;;;;;;;4.68;100.00;95677.38;5467695;26;19947;-72
2024/04/16 06:20:08;;;;;;;;;;;;;;;4.73;100.00;95670.78;5467672;26;20109;-72
2024/04/16 06:22:33;;;;;;;;;;;;;;;4.73;100.00;95694.97;5467642;26;20096;-72
2024/04/16 06:24:59;;;;;;;;;;;;;;;4.78;100.00;95681.38;5467543;26;20023;-72
2024/04/16 06:27:25;;;;;;;;;;;;;;;4.82;100.00;95667.78;5467581;26;19981;-73
2024/04/16 06:29:51;;;;;;;;;;;;;;;4.82;100.00;95661.78;5467552;26;19993;-74
2024/04/16 06:32:17;;;;;;;;;;;;;;;4.90;100.00;95651.19;5467503;26;19948;-78
2024/04/16 06:34:42;;;;;;;;;;;;;;;5.05;100.00;95641.38;5467387;26;19994;-76
2024/04/16 06:37:08;;;;;;;;;;;;;;;5.18;100.00;95647.56;5467427;26;20143;-76
2024/04/16 06:39:34;;;;;;;;;;;;;;;5.32;100.00;95662.13;5467361;26;19977;-77
2024/04/16 06:42:03;;;;;;;;;;;;;;;5.47;100.00;95646.28;5467358;26;19962;-78
2024/04/16 06:44:29;;;;;;;;;;;;;;;5.84;100.00;95626.50;5467350;26;19954;-81
2024/04/16 06:46:55;;;;;;;;;;;;;;;6.22;100.00;95611.91;5467357;26;20177;-66
2024/04/16 06:49:20;;;;;;;;;;;;;;;6.68;98.94;95606.34;5467220;26;19965;-66
2024/04/16 06:51:46;;;;;;;;;;;;;;;7.07;97.99;95583.50;5467185;26;19977;-67
2024/04/16 06:54:12;;;;;;;;;;;;;;;7.62;93.55;95581.91;5467148;26;19965;-66
2024/04/16 06:56:41;;;;;;;;;;;;;;;8.14;84.63;95516.91;5466221;26;19953;-66
2024/04/16 06:59:07;;;;;;;;;;;;;;;8.09;83.54;95508.97;5466457;26;19984;-67
2024/04/16 07:01:33;;;;;;;;;;;;;;;7.95;85.64;95525.84;5466861;26;19945;-67
2024/04/16 07:04:02;;;;;;;;;;;;;;;7.77;83.14;95511.84;5466888;26;20148;-67
2024/04/16 07:06:28;;;;;;;;;;;;;;;7.45;82.54;95532.13;5466679;26;19964;-75
2024/04/16 07:08:54;;;;;;;;;;;;;;;7.27;81.60;95520.72;5466883;26;20219;-73
2024/04/16 07:11:19;;;;;;;;;;;;;;;7.59;82.82;95530.16;5466933;26;19950;-74
2024/04/16 07:13:45;;;;;;;;;;;;;;;8.00;80.13;95516.34;5466868;26;19999;-72
2024/04/16 07:16:11;;;;;;;;;;;;;;;8.32;77.37;95482.06;5466771;26;20027;-72
2024/04/16 07:18:37;;;;;;;;;;;;;;;8.54;79.16;95508.44;5466740;26;19956;-73
2024/04/16 07:21:03;;;;;;;;;;;;;;;8.77;73.00;95478.09;5466316;26;19959;-73
2024/04/16 07:23:29;;;;;;;;;;;;;;;8.79;69.38;95470.81;5466702;26;20155;-73
2024/04/16 07:25:55;;;;;;;;;;;;;;;8.89;71.32;95510.25;5466687;26;19961;-67
2024/04/16 07:28:21;;;;;;;;;;;;;;;9.08;67.23;95516.13;5466643;26;19950;-68
2024/04/16 07:30:46;;;;;;;;;;;;;;;9.22;67.09;95514.03;5466798;26;19947;-67
2024/04/16 07:33:13;;;;;;;;;;;;;;;9.34;66.13;95520.03;5466637;26;20004;-67
2024/04/16 07:35:40;;;;;;;;;;;;;;;9.62;70.40;95529.72;5466303;26;20090;-68
2024/04/16 07:38:06;;;;;;;;;;;;;;;9.63;67.17;95502.50;5466437;26;19953;-68
2024/04/16 07:40:32;;;;;;;;;;;;;;;9.63;64.02;95505.13;5466478;26;19956;-68
2024/04/16 07:42:58;;;;;;;;;;;;;;;9.63;66.40;95512.97;5466400;26;20023;-72
2024/04/16 07:45:24;;;;;;;;;;;;;;;9.75;62.60;95495.41;5466136;26;20021;-68
2024/04/16 07:47:49;;;;;;;;;;;;;;;9.73;63.11;95507.91;5466261;26;19970;-67
2024/04/16 07:50:15;;;;;;;;;;;;;;;9.37;57.86;95545.72;5466208;26;20021;-68
2024/04/16 07:52:41;;;;;;;;;;;;;;;9.36;61.56;95554.59;5466244;26;20025;-68
2024/04/16 07:55:07;;;;;;;;;;;;;;;9.45;59.55;95568.09;5466086;26;19955;-68
2024/04/16 07:57:33;;;;;;;;;;;;;;;9.55;61.69;95565.69;5466035;26;19993;-68
2024/04/16 07:59:59;;;;;;;;;;;;;;;9.83;65.98;95564.13;5466053;26;19980;-68
2024/04/16 08:02:26;;;;;;;;;;;;;;;10.06;58.44;95544.91;5465171;26;20123;-75
2024/04/16 08:04:52;;;;;;;;;;;;;;;10.23;57.09;95566.66;5466074;26;20176;-75
2024/04/16 08:07:17;;;;;;;;;;;;;;;10.16;57.79;95555.50;5466078;26;19974;-75
2024/04/16 08:09:46;;;;;;;;;;;;;;;10.03;57.04;95561.84;5465917;26;20112;-75
2024/04/16 08:12:12;;;;;;;;;;;;;;;10.11;56.95;95579.03;5465937;26;19994;-77
2024/04/16 08:14:38;;;;;;;;;;;;;;;10.09;58.23;95573.22;5465835;26;19958;-75
2024/04/16 08:17:04;;;;;;;;;;;;;;;10.12;58.89;95604.19;5465821;26;19962;-76
2024/04/16 08:19:29;;;;;;;;;;;;;;;10.05;56.11;95598.28;5465783;26;19981;-72
2024/04/16 08:21:55;;;;;;;;;;;;;;;9.89;57.12;95589.34;5465698;26;19999;-72
2024/04/16 08:24:21;;;;;;;;;;;;;;;9.71;58.04;95604.22;5465734;26;19957;-72
2024/04/16 08:26:47;;;;;;;;;;;;;;;9.54;58.10;95603.38;5465516;26;19977;-72
2024/04/16 08:29:13;;;;;;;;;;;;;;;9.58;58.64;95619.41;5465681;26;19973;-72
2024/04/16 08:31:39;;;;;;;;;;;;;;;9.71;56.94;95606.84;5465511;26;20019;-72
2024/04/16 08:34:05;;;;;;;;;;;;;;;9.53;55.88;95594.72;5467633;26;19959;-71
2024/04/16 08:36:31;;;;;;;;;;;;;;;9.48;57.01;95583.38;5469141;26;19959;-73
2024/04/16 08:38:57;;;;;;;;;;;;;;;9.60;57.09;95573.66;5469257;26;19951;-80
2024/04/16 08:41:22;;;;;;;;;;;;;;;9.75;57.40;95575.75;5469116;26;19953;-72
2024/04/16 08:43:50;;;;;;;;;;;;;;;9.79;56.66;95586.56;5469122;26;19956;-72
2024/04/16 08:46:16;;;;;;;;;;;;;;;9.80;57.29;95590.78;5469069;26;20030;-72
2024/04/16 08:48:44;;;;;;;;;;;;;;;9.71;59.07;95580.66;5469128;26;19957;-72
2024/04/16 08:51:12;;;;;;;;;;;;;;;9.63;59.15;95577.63;5469045;26;19948;-72
2024/04/16 08:53:40;;;;;;;;;;;;;;;9.52;59.91;95592.34;5469004;26;19981;-72
2024/04/16 08:56:06;;;;;;;;;;;;;;;9.67;60.80;95597.88;5468823;26;19953;-69
2024/04/16 08:58:32;;;;;;;;;;;;;;;9.59;57.24;95592.19;5468891;26;19973;-73
2024/04/16 09:00:58;;;;;;;;;;;;;;;9.45;56.96;95592.47;5468867;26;19960;-73
2024/04/16 09:03:25;;;;;;;;;;;;;;;9.43;61.35;95586.69;5468924;26;20155;-73
2024/04/16 09:05:51;;;;;;;;;;;;;;;9.41;60.43;95593.16;5468864;26;19954;-72
2024/04/16 09:08:17;;;;;;;;;;;;;;;9.31;61.46;95591.94;5469009;26;20021;-73
2024/04/16 09:10:43;;;;;;;;;;;;;;;9.34;62.45;95595.91;5468795;26;19989;-73
2024/04/16 09:13:12;;;;;;;;;;;;;;;9.39;61.90;95596.03;5468850;26;19957;-73
2024/04/16 09:15:39;;;;;;;;;;;;;;;9.31;61.60;95591.94;5468550;26;20152;-70
2024/04/16 09:18:05;;;;;;;;;;;;;;;9.28;62.02;95589.78;5468703;26;19958;-74
2024/04/16 09:20:31;;;;;;;;;;;;;;;9.32;62.63;95595.34;5468608;26;19957;-74
2024/04/16 09:22:57;;;;;;;;;;;;;;;9.45;62.91;95600.31;5468626;26;20216;-74
2024/04/16 09:25:24;;;;;;;;;;;;;;;9.54;61.92;95598.16;5468832;26;20201;-75
2024/04/16 09:27:51;;;;;;;;;;;;;;;9.41;60.63;95588.72;5468577;26;20088;-74
2024/04/16 09:30:17;;;;;;;;;;;;;;;9.36;62.34;95596.47;5468625;26;19952;-74
2024/04/16 09:32:46;;;;;;;;;;;;;;;9.26;60.64;95589.22;5468431;26;20096;-76
2024/04/16 09:35:15;;;;;;;;;;;;;;;9.17;63.39;95608.88;5468391;26;19955;-68
2024/04/16 09:37:42;;;;;;;;;;;;;;;9.10;63.83;95621.31;5468671;26;20074;-68
2024/04/16 09:40:08;;;;;;;;;;;;;;;8.95;63.01;95600.84;5468498;26;19955;-67
2024/04/16 09:42:36;;;;;;;;;;;;;;;8.81;63.47;95594.25;5467489;26;19973;-68
2024/04/16 09:45:02;;;;;;;;;;;;;;;8.79;65.97;95604.13;5468204;26;20081;-67
2024/04/16 09:47:30;;;;;;;;;;;;;;;8.78;65.53;95603.34;5468218;26;19977;-67
2024/04/16 09:49:57;;;;;;;;;;;;;;;8.87;65.35;95603.81;5468251;26;19961;-68
2024/04/16 09:52:24;;;;;;;;;;;;;;;9.00;65.11;95598.31;5468175;26;19975;-71
2024/04/16 09:54:51;;;;;;;;;;;;;;;9.13;65.77;95597.28;5466944;26;19957;-72
2024/04/16 09:57:18;;;;;;;;;;;;;;;9.20;63.60;95589.31;5466704;26;19981;-72
2024/04/16 09:59:47;;;;;;;;;;;;;;;9.12;63.82;95588.66;5468045;26;19954;-73
2024/04/16 10:02:13;;;;;;;;;;;;;;;9.02;65.63;95587.66;5466908;26;19972;-72
2024/04/16 10:04:40;;;;;;;;;;;;;;;8.87;64.93;95586.28;5468020;26;20158;-73
2024/04/16 10:07:06;;;;;;;;;;;;;;;8.89;67.56;95599.13;5468043;26;20024;-73
2024/04/16 10:09:32;;;;;;;;;;;;;;;9.04;68.00;95591.63;5467910;26;19962;-70
2024/04/16 10:11:58;;;;;;;;;;;;;;;9.30;66.18;95581.69;5467995;26;20070;-68
2024/04/16 10:14:25;;;;;;;;;;;;;;;9.66;65.08;95592.84;5467889;26;19980;-70
2024/04/16 10:16:51;;;;;;;;;;;;;;;9.97;63.19;95578.50;5467807;26;19973;-69
2024/04/16 10:19:17;;;;;;;;;;;;;;;10.18;64.21;95584.91;5467771;26;19978;-70
2024/04/16 10:21:45;;;;;;;;;;;;;;;10.14;62.37;95592.44;5468049;26;20194;-70
2024/04/16 10:24:11;;;;;;;;;;;;;;;10.05;61.44;95572.09;5467681;26;19948;-70
2024/04/16 10:26:41;;;;;;;;;;;;;;;9.84;61.42;95584.03;5467154;26;19959;-70
2024/04/16 10:29:14;;;;;;;;;;;;;;;9.93;63.57;95588.69;5467627;26;19963;-71
2024/04/16 10:31:40;;;;;;;;;;;;;;;10.22;65.40;95580.78;5467616;26;19996;-68
2024/04/16 10:34:06;;;;;;;;;;;;;;;10.47;63.17;95574.41;5467562;26;19971;-68
2024/04/16 10:36:33;;;;;;;;;;;;;;;10.77;60.56;95567.00;5467439;26;19994;-68
2024/04/16 10:39:09;;;;;;;;;;;;;;;10.81;59.47;95562.03;5467503;26;20119;-68
2024/04/16 10:41:35;;;;;;;;;;;;;;;10.81;60.72;95569.91;5467586;26;20099;-69
2024/04/16 10:44:02;;;;;;;;;;;;;;;10.84;59.38;95551.09;5467483;26;20020;-68
2024/04/16 10:46:28;;;;;;;;;;;;;;;10.69;61.44;95561.38;5467575;26;19948;-72
2024/04/16 10:48:55;;;;;;;;;;;;;;;10.54;62.02;95569.78;5467347;26;20031;-68
2024/04/16 10:51:27;;;;;;;;;;;;;;;10.33;62.48;95566.84;5466896;26;19975;-68
2024/04/16 10:54:03;;;;;;;;;;;;;;;10.49;62.96;95575.75;5466986;26;19949;-68
2024/04/16 10:56:29;;;;;;;;;;;;;;;10.38;62.35;95571.38;5466324;26;19954;-68
2024/04/16 10:58:55;;;;;;;;;;;;;;;10.30;63.52;95571.78;5467101;26;19970;-69
2024/04/16 11:01:23;;;;;;;;;;;;;;;10.20;63.57;95576.81;5466348;26;19961;-67
2024/04/16 11:03:49;;;;;;;;;;;;;;;10.13;63.85;95587.44;5467022;26;19954;-68
2024/04/16 11:06:19;;;;;;;;;;;;;;;10.13;64.86;95579.59;5466185;26;19956;-69
2024/04/16 11:08:45;;;;;;;;;;;;;;;10.19;66.34;95601.44;5467016;26;19949;-73
2024/04/16 11:11:13;;;;;;;;;;;;;;;10.22;65.34;95590.47;5467049;26;19945;-72
2024/04/16 11:13:39;;;;;;;;;;;;;;;10.48;66.73;95608.25;5465941;26;19953;-73
2024/04/16 11:16:05;;;;;;;;;;;;;;;10.90;65.40;95596.56;5466820;26;19951;-72
2024/04/16 11:18:31;;;;;;;;;;;;;;;11.22;61.94;95588.06;5466888;26;19942;-73
2024/04/16 11:20:57;;;;;;;;;;;;;;;11.52;60.67;95567.44;5466899;26;19951;-74
2024/04/16 11:23:23;;;;;;;;;;;;;;;11.50;59.51;95568.72;5466915;26;19967;-71
2024/04/16 11:25:49;;;;;;;;;;;;;;;11.55;59.50;95572.19;5466754;26;20100;-78
2024/04/16 11:28:14;;;;;;;;;;;;;;;11.76;60.04;95573.22;5465913;26;19954;-78
2024/04/16 11:30:52;;;;;;;;;;;;;;;11.86;58.62;95561.22;5466641;26;20163;-79
2024/04/16 11:33:18;;;;;;;;;;;;;;;11.84;60.69;95574.59;5466657;26;19951;-78
2024/04/16 11:35:44;;;;;;;;;;;;;;;11.99;59.35;95568.75;5466507;26;20028;-79
2024/04/16 11:38:09;;;;;;;;;;;;;;;12.23;58.14;95578.97;5466535;26;19951;-79
2024/04/16 11:40:40;;;;;;;;;;;;;;;12.52;56.47;95561.06;5466473;26;20181;-78
2024/04/16 11:43:09;;;;;;;;;;;;;;;12.77;54.96;95563.88;5466616;26;19972;-72
2024/04/16 11:45:35;;;;;;;;;;;;;;;12.57;54.35;95580.28;5466323;26;19964;-73
2024/04/16 11:48:00;;;;;;;;;;;;;;;12.24;54.29;95577.91;5466457;26;20046;-74
2024/04/16 11:50:28;;;;;;;;;;;;;;;12.01;54.73;95581.63;5466373;26;20013;-73
2024/04/16 11:52:54;;;;;;;;;;;;;;;11.83;55.75;95591.41;5466348;26;19947;-73
2024/04/16 11:55:22;;;;;;;;;;;;;;;11.59;55.82;95596.16;5466232;26;19953;-73
2024/04/16 11:57:48;;;;;;;;;;;;;;;11.40;56.27;95595.63;5466211;26;19955;-73
2024/04/16 12:00:14;;;;;;;;;;;;;;;11.38;56.56;95588.03;5466209;26;19995;-69
2024/04/16 12:02:40;;;;;;;;;;;;;;;11.26;56.29;95579.47;5466080;26;19953;-70
2024/04/16 12:05:06;;;;;;;;;;;;;;;11.13;57.58;95585.06;5466062;26;20043;-70
2024/04/16 12:07:32;;;;;;;;;;;;;;;11.05;57.84;95586.28;5465943;26;19962;-70
2024/04/16 12:09:57;;;;;;;;;;;;;;;11.05;58.87;95590.72;5469281;26;19985;-70
2024/04/16 12:12:23;;;;;;;;;;;;;;;10.96;56.44;95575.41;5469053;26;19983;-70
2024/04/16 12:14:49;;;;;;;;;;;;;;;11.21;57.29;95575.97;5469475;26;19958;-70
2024/04/16 12:17:15;;;;;;;;;;;;;;;11.59;56.47;95564.63;5469449;26;19949;-71
2024/04/16 12:19:41;;;;;;;;;;;;;;;11.73;55.93;95572.91;5469434;26;19966;-71
2024/04/16 12:22:07;;;;;;;;;;;;;;;11.81;56.89;95567.22;5469481;26;19951;-76
2024/04/16 12:24:33;;;;;;;;;;;;;;;12.04;57.69;95568.00;5469453;26;19963;-76
2024/04/16 12:26:59;;;;;;;;;;;;;;;12.47;55.26;95567.06;5469446;26;19951;-76
2024/04/16 12:29:24;;;;;;;;;;;;;;;12.72;54.62;95542.00;5469376;26;20165;-77
2024/04/16 12:31:50;;;;;;;;;;;;;;;13.01;55.87;95545.06;5469345;26;19968;-77
2024/04/16 12:34:16;;;;;;;;;;;;;;;13.14;52.59;95534.06;5469316;26;20147;-77
2024/04/16 12:36:42;;;;;;;;;;;;;;;13.36;53.09;95552.38;5469188;26;20021;-81
2024/04/16 12:39:08;;;;;;;;;;;;;;;13.24;50.43;95543.84;5469281;26;19952;-74
2024/04/16 12:41:34;;;;;;;;;;;;;;;13.09;52.21;95546.44;5468283;26;19966;-72
2024/04/16 12:43:59;;;;;;;;;;;;;;;12.88;52.33;95535.78;5469223;26;19947;-73
2024/04/16 12:46:25;;;;;;;;;;;;;;;12.78;51.74;95536.50;5469017;26;19970;-73
2024/04/16 12:48:51;;;;;;;;;;;;;;;12.58;50.26;95528.50;5469182;26;20089;-73